Latest Weather Observations for Point Stuart

IDD60801

Issued at 11:31 pm CST Sunday 20 May 2018 (issued every 10 minutes, with the page automatically refreshed every 10 minutes)

About weather observations | Map of weather stations | Latest weather observations for NT | Other Formats
Station Details ID: 014254 Name: POINT STUART Lat: -12.24 Lon: 131.88 Height: 1.0 m
Data from the previous 72 hours. | See also: Recent months at Point Stuart
Date/Time
CST
Temp
°C
App
Temp
°C
Dew
Point
°C
Rel
Hum
%
Delta-T
°C
Wind Press
QNH
hPa
Press
MSL
hPa
Rain since
9am
mm
Dir  Spd
km/h
Gust
km/h
Spd
kts
Gust
kts
20/11:30pm 25.2 24.0 16.1 57 5.6 SE 17 20 9 11 1012.6 - 0.0
20/11:00pm 25.6 25.0 16.7 58 5.5 SSE 15 19 8 10 1012.7 - 0.0
20/10:30pm 25.6 25.6 17.3 60 5.2 SSE 13 20 7 11 1012.8 - 0.0
20/10:00pm 26.1 25.9 17.5 59 5.4 SE 15 22 8 12 1012.7 - 0.0
20/09:30pm 25.9 26.4 18.3 63 4.8 SSE 13 15 7 8 1012.5 - 0.0
20/09:00pm 25.5 27.2 20.1 72 3.5 SSE 11 13 6 7 1012.4 1012.4 0.0
20/08:30pm 25.2 29.3 22.9 87 1.6 ENE 6 9 3 5 1011.9 - 0.0
20/08:00pm 25.0 28.9 20.3 75 3.1 CALM 0 0 0 0 1011.4 - 0.0
20/07:30pm 25.5 29.3 20.1 72 3.5 CALM 0 0 0 0 1010.8 - 0.0
20/07:00pm 26.3 30.2 20.4 70 3.9 CALM 0 0 0 0 1010.5 - 0.0
20/06:30pm 27.6 30.9 19.1 59 5.5 CALM 0 6 0 3 1010.1 - 0.0
20/06:00pm 28.7 30.9 19.1 56 6.2 ENE 6 6 3 3 1009.8 1009.8 0.0
20/05:30pm 30.1 32.3 19.2 52 7.1 ENE 6 7 3 4 1009.5 - 0.0
20/05:00pm 30.7 31.9 19.1 50 7.5 ENE 11 15 6 8 1009.2 - 0.0
20/04:30pm 31.1 31.7 18.5 47 8.1 NE 13 19 7 10 1009.0 - 0.0
20/04:00pm 31.4 31.5 19.1 48 8.0 NE 17 22 9 12 1009.0 - 0.0
20/03:30pm 31.7 31.2 18.7 46 8.4 ENE 19 26 10 14 1009.1 - 0.0
20/03:00pm 31.7 30.3 17.9 43 8.9 ENE 22 28 12 15 1009.0 1009.0 0.0
20/02:30pm 31.9 30.1 17.8 43 9.0 E 24 30 13 16 1009.4 - 0.0
20/02:00pm 32.0 30.9 17.8 42 9.1 E 20 28 11 15 1009.8 - 0.0
20/01:30pm 31.9 30.4 17.8 43 9.0 E 22 33 12 18 1010.1 - 0.0
20/01:00pm 31.3 29.3 18.3 46 8.4 E 26 37 14 20 1010.4 - 0.0
20/12:30pm 31.3 29.0 17.6 44 8.7 E 26 33 14 18 1010.7 - 0.0
20/12:00pm 30.5 27.5 16.9 44 8.6 E 28 39 15 21 1011.1 1011.1 0.0
20/11:30am 29.8 27.0 17.3 47 7.9 ESE 28 41 15 22 1011.4 - 0.0
20/11:00am 29.7 25.9 16.8 45 8.1 E 32 44 17 24 1011.9 - 0.0
20/10:30am 28.9 26.5 17.4 49 7.3 ESE 26 33 14 18 1012.0 - 0.0
20/10:00am 28.1 25.8 16.7 50 7.1 ESE 24 37 13 20 1012.2 - 0.0
20/09:30am 26.8 25.7 17.8 57 5.7 SE 20 33 11 18 1012.3 - 0.0
20/09:00am 24.6 24.8 19.4 73 3.3 SE 17 20 9 11 1012.2 1012.2 0.0
20/08:30am 23.2 23.4 19.4 79 2.4 SE 17 20 9 11 1012.2 - 0.0
20/08:00am 21.9 22.0 18.3 80 2.2 ESE 15 20 8 11 1011.9 - 0.0
20/07:30am 21.2 21.2 18.0 82 2.0 ESE 15 20 8 11 1011.7 - 0.0
20/07:00am 20.0 20.3 17.0 83 1.8 ESE 11 13 6 7 1011.5 - 0.0
20/06:30am 19.9 20.1 16.7 82 1.9 ESE 11 13 6 7 1011.2 - 0.0
20/06:00am 19.6 19.7 16.6 83 1.8 SE 11 13 6 7 1010.7 1010.7 0.0
20/05:30am 19.1 19.4 16.0 82 1.8 SE 9 11 5 6 1010.6 - 0.0
20/05:00am 19.7 19.5 15.6 77 2.4 SSE 11 13 6 7 1010.5 - 0.0
20/04:30am 19.7 19.3 15.1 75 2.7 SE 11 13 6 7 1010.3 - 0.0
20/04:00am 20.0 19.4 14.6 71 3.1 SE 11 13 6 7 1010.3 - 0.0
20/03:30am 20.2 19.5 14.3 69 3.4 SE 11 15 6 8 1010.4 - 0.0
20/03:00am 20.4 19.5 13.8 66 3.8 SE 11 15 6 8 1010.6 1010.6 0.0
20/02:30am 20.8 19.6 14.0 65 3.9 SE 13 15 7 8 1010.7 - 0.0
20/02:00am 20.8 19.8 13.5 63 4.2 SE 11 15 6 8 1011.2 - 0.0
20/01:30am 20.9 19.8 13.1 61 4.4 SE 11 15 6 8 1011.2 - 0.0
20/01:00am 21.7 21.0 13.1 58 4.9 SE 9 13 5 7 1011.5 - 0.0
20/12:30am 22.6 21.5 14.2 59 4.9 SSE 13 15 7 8 1011.5 - 0.0
20/12:00am 23.1 21.6 13.0 53 5.8 SE 13 17 7 9 1011.8 1011.8 0.0
 
Date/Time
CST
Temp
°C
App
Temp
°C
Dew
Point
°C
Rel
Hum
%
Delta-T
°C
Wind Press
QNH
hPa
Press
MSL
hPa
Rain since
9am
mm
Dir  Spd
km/h
Gust
km/h
Spd
kts
Gust
kts
19/11:30pm 23.3 22.1 14.0 56 5.4 SE 13 17 7 9 1012.3 - 0.0
19/11:00pm 21.9 22.7 18.1 79 2.4 S 11 13 6 7 1012.4 - 0.0
19/10:30pm 21.7 23.0 18.5 82 2.0 S 9 11 5 6 1012.5 - 0.0
19/10:00pm 21.8 23.0 19.0 84 1.8 S 11 11 6 6 1012.3 - 0.0
19/09:30pm 21.8 23.1 18.4 81 2.1 S 9 11 5 6 1012.0 - 0.0
19/09:00pm 22.2 23.5 19.4 84 1.8 S 11 11 6 6 1011.9 1011.9 0.0
19/08:30pm 22.4 23.7 17.1 72 3.3 S 6 7 3 4 1011.6 - 0.0
19/08:00pm 22.8 23.7 17.5 72 3.3 S 9 9 5 5 1011.2 - 0.0
19/07:30pm 23.6 23.9 16.1 62 4.6 SE 9 11 5 6 1010.9 - 0.0
19/07:00pm 24.6 24.4 14.7 54 5.9 SE 9 11 5 6 1010.5 - 0.0
19/06:30pm 25.4 25.0 14.2 50 6.6 SE 9 11 5 6 1010.3 - 0.0
19/06:00pm 26.6 25.9 14.4 47 7.3 SE 11 13 6 7 1010.0 1010.0 0.0
19/05:30pm 28.0 27.0 13.5 41 8.6 SE 11 15 6 8 1009.7 - 0.0
19/05:00pm 29.2 27.7 13.0 37 9.6 ESE 13 17 7 9 1009.2 - 0.0
19/04:30pm 29.7 27.3 12.6 35 10.1 SE 17 20 9 11 1009.0 - 0.0
19/04:00pm 30.1 28.3 13.4 36 10.0 E 15 20 8 11 1008.9 - 0.0
19/03:30pm 29.9 27.3 11.9 33 10.5 E 17 22 9 12 1008.9 - 0.0
19/03:00pm 30.2 27.2 12.6 34 10.4 E 20 26 11 14 1008.9 1008.9 0.0
19/02:30pm 29.8 26.7 12.3 34 10.3 E 20 28 11 15 1009.1 - 0.0
19/02:00pm 30.0 26.4 12.0 33 10.5 E 22 37 12 20 1009.3 - 0.0
19/01:30pm 29.5 27.1 13.7 38 9.4 SE 19 28 10 15 1009.7 - 0.0
19/01:00pm 29.3 26.0 12.7 36 9.8 SE 22 30 12 16 1010.1 - 0.0
19/12:30pm 28.0 23.7 12.0 37 9.3 SE 26 41 14 22 1010.5 - 0.0
19/12:00pm 27.6 24.1 13.5 41 8.3 SE 24 35 13 19 1011.2 1011.2 0.0
19/11:30am 26.0 22.1 12.1 42 8.0 SE 24 35 13 19 1011.5 - 0.0
19/11:00am 26.3 22.5 12.4 42 8.0 SE 24 33 13 18 1011.7 - 0.0
19/10:30am 27.3 24.0 14.0 44 7.9 ESE 24 33 13 18 1012.0 - 0.0
19/10:00am 26.1 22.5 13.2 44 7.5 SE 24 33 13 18 1012.2 - 0.0
19/09:30am 24.4 22.7 14.8 55 5.7 SE 17 24 9 13 1012.4 - 0.0
19/09:00am 23.2 22.5 16.3 65 4.2 SSE 15 22 8 12 1012.4 1012.4 0.0
19/08:30am 21.6 21.1 15.9 70 3.4 SSE 13 15 7 8 1012.3 - 0.0
19/08:00am 20.3 20.5 15.7 75 2.7 SSE 9 13 5 7 1012.2 - 0.0
19/07:30am 19.3 19.3 16.2 82 1.9 SSE 11 13 6 7 1011.7 - 0.0
19/07:00am 18.7 19.0 15.9 84 1.7 SSE 9 13 5 7 1011.3 - 0.0
19/06:30am 18.8 18.7 16.0 84 1.7 SSE 11 13 6 7 1010.9 - 0.0
19/06:00am 18.9 19.0 16.5 86 1.4 SSE 11 13 6 7 1010.5 1010.5 0.0
19/05:30am 18.9 19.2 16.9 88 1.2 SE 11 13 6 7 1010.4 - 0.0
19/05:00am 18.8 18.6 15.7 82 1.8 SE 11 13 6 7 1010.5 - 0.0
19/04:30am 19.5 19.0 15.8 79 2.2 SE 13 15 7 8 1010.6 - 0.0
19/04:00am 19.9 19.5 15.3 75 2.7 SE 11 15 6 8 1010.4 - 0.0
19/03:30am 20.7 19.7 15.7 73 3.0 SE 15 17 8 9 1010.4 - 0.0
19/03:00am 20.8 20.2 15.6 72 3.1 SE 13 17 7 9 1010.6 1010.6 0.0
19/02:30am 21.3 20.3 15.6 70 3.4 SE 15 20 8 11 1010.8 - 0.0
19/02:00am 21.7 20.2 15.3 67 3.8 SE 17 22 9 12 1010.9 - 0.0
19/01:30am 22.1 20.1 15.0 64 4.2 SE 19 24 10 13 1011.0 - 0.0
19/01:00am 22.2 20.1 14.6 62 4.5 SE 19 24 10 13 1011.2 - 0.0
19/12:30am 22.0 20.0 13.9 60 4.7 SE 17 22 9 12 1011.8 - 0.0
19/12:00am 22.0 20.2 13.4 58 5.0 SE 15 19 8 10 1012.0 1012.0 0.0
 
Date/Time
CST
Temp
°C
App
Temp
°C
Dew
Point
°C
Rel
Hum
%
Delta-T
°C
Wind Press
QNH
hPa
Press
MSL
hPa
Rain since
9am
mm
Dir  Spd
km/h
Gust
km/h
Spd
kts
Gust
kts
18/11:30pm 22.1 20.7 13.5 58 5.0 SSE 13 17 7 9 1012.0 - 0.0
18/11:00pm 22.8 20.6 13.3 55 5.5 SE 17 20 9 11 1011.9 - 0.0
18/10:30pm 23.1 21.2 13.0 53 5.8 SSE 15 19 8 10 1011.8 - 0.0
18/10:00pm 23.5 21.8 13.7 54 5.7 SSE 15 19 8 10 1011.7 - 0.0
18/09:30pm 23.4 22.5 14.9 59 5.1 SSE 13 17 7 9 1011.6 - 0.0
18/09:00pm 22.2 23.0 18.2 78 2.5 S 11 13 6 7 1011.6 1011.6 0.0
18/08:30pm 22.4 23.8 19.6 84 1.8 SSE 11 11 6 6 1011.3 - 0.0
18/08:00pm 22.1 23.9 18.7 81 2.1 SSE 7 9 4 5 1011.1 - 0.0
18/07:30pm 23.0 24.3 17.0 69 3.7 SSE 6 6 3 3 1010.7 - 0.0
18/07:00pm 24.6 25.8 17.3 64 4.5 SSE 7 7 4 4 1010.2 - 0.0
18/06:30pm 25.8 26.7 16.6 56 5.7 SSE 7 9 4 5 1009.6 - 0.0
18/06:00pm 26.8 27.4 15.8 51 6.7 SSE 7 11 4 6 1009.2 1009.2 0.0
18/05:30pm 27.9 29.3 17.4 52 6.6 E 6 9 3 5 1009.1 - 0.0
18/05:00pm 28.6 29.2 16.8 48 7.4 E 9 11 5 6 1008.8 - 0.0
18/04:30pm 28.7 28.6 15.9 45 7.9 ENE 11 15 6 8 1008.5 - 0.0
18/04:00pm 29.8 28.6 15.1 40 9.0 NE 15 20 8 11 1008.5 - 0.0
18/03:30pm 29.8 28.5 14.7 39 9.2 ENE 15 20 8 11 1008.5 - 0.0
18/03:00pm 30.2 28.3 14.3 38 9.6 ENE 17 22 9 12 1008.7 1008.7 0.0
18/02:30pm 30.9 28.0 14.1 36 10.2 E 22 32 12 17 1008.9 - 0.0
18/02:00pm 30.6 27.4 14.2 36 9.9 E 24 30 13 16 1009.4 - 0.0
18/01:30pm 30.5 27.8 14.6 38 9.7 E 22 30 12 16 1010.0 - 0.0
18/01:00pm 29.6 26.3 12.9 35 9.9 E 22 30 12 16 1010.3 - 0.0
18/12:30pm 29.1 26.2 14.1 40 9.0 E 22 33 12 18 1010.6 - 0.0
18/12:00pm 28.4 24.6 12.3 37 9.4 E 24 41 13 22 1011.2 1011.2 0.0
18/11:30am 27.5 22.8 11.9 38 9.0 SE 28 39 15 21 1011.6 - 0.0
18/11:00am 26.9 23.5 11.4 38 8.8 SE 20 33 11 18 1012.1 - 0.0
18/10:30am 25.1 22.1 10.6 40 8.1 SSE 17 24 9 13 1012.2 - 0.0
18/10:00am 23.6 19.7 8.5 38 8.0 SSE 19 26 10 14 1012.4 - 0.0
18/09:30am 22.6 19.3 9.7 44 7.0 SSE 17 22 9 12 1012.8 - 0.0
18/09:00am 21.4 18.4 9.3 46 6.5 SSE 15 20 8 11 1012.7 1012.7 0.0
18/08:30am 19.5 17.1 8.8 50 5.6 S 11 13 6 7 1012.4 - 0.0
18/08:00am 17.7 15.7 10.3 62 3.9 S 11 13 6 7 1012.1 - 0.0
18/07:30am 16.5 14.8 9.9 65 3.5 S 9 13 5 7 1011.9 - 0.0
18/07:00am 16.1 14.0 9.8 66 3.3 SSE 11 13 6 7 1011.8 - 0.0
18/06:30am 17.2 14.5 9.1 59 4.2 SSE 13 15 7 8 1011.8 - 0.0
18/06:00am 16.6 14.5 9.8 64 3.6 S 11 13 6 7 1011.6 1011.6 0.0
18/05:30am 16.5 14.6 10.4 67 3.2 S 11 13 6 7 1011.4 - 0.0
18/05:00am 16.3 14.4 10.4 68 3.1 S 11 13 6 7 1011.2 - 0.0
18/04:30am 17.7 15.1 9.3 58 4.4 SSE 13 17 7 9 1011.3 - 0.0
18/04:00am 17.9 15.8 9.8 59 4.3 SSE 11 13 6 7 1011.5 - 0.0
18/03:30am 18.3 15.6 8.8 54 4.9 SSE 13 15 7 8 1011.8 - 0.0
18/03:00am 18.6 15.8 8.6 52 5.2 SSE 13 17 7 9 1012.0 1012.0 0.0
18/02:30am 19.1 16.5 9.3 53 5.2 SSE 13 17 7 9 1012.3 - 0.0
18/02:00am 19.1 16.5 9.3 53 5.2 SSE 13 17 7 9 1012.5 - 0.0
18/01:30am 18.8 16.4 8.7 52 5.2 SSE 11 15 6 8 1012.9 - 0.0
18/01:00am 19.2 16.7 9.7 54 5.0 SSE 13 15 7 8 1012.8 - 0.0
18/12:30am 19.4 16.7 9.0 51 5.5 SE 13 15 7 8 1012.9 - 0.0
18/12:00am 20.2 16.9 8.2 46 6.2 SE 15 19 8 10 1012.7 1012.7 0.0

Other Formats:

Comma delimited format used in spreadsheet applications
http://www.bom.gov.au/fwo/IDD60801/IDD60801.94127.axf

JavaScript Object Notation format (JSON) in row-major order
http://www.bom.gov.au/fwo/IDD60801/IDD60801.94127.json